Airfield :
LOGIN :

Register | Disclaimer

   EN    FR    IT 

 










Legend :    VFR   Marginal VFR   IFR   Intensive IFR   Very Intensive IFR
Visi :
Ceiling :
>= 8 km
>= 3000ft
5 to 8 km
1000 to 3000 ft
1500m to 5 km
500 to 1000 ft
800 to 1500m
200 to 500 ft
< 800m
< 200 ft
Symbols :   Thunderstorms  Fog  Heavy snow  Heavy precipitations  Wind > 20 kt
SIGMETs :     Misc.  Thunderstorms  Icing  Turbulence  Mountain Waves  Volcanic Ashes






- Airport Elevation : 1161 ft
- IATA code : RJL


LELO - Logroño-Agoncillo

CURRENT METAR :
  • 290600Z VRB02KT CAVOK 13/10 Q1020

EXPIRED METARs :
  • 290530Z 27004KT CAVOK 11/09 Q1020
  • 290500Z 27005KT CAVOK 11/09 Q1020
  • 290430Z AUTO VRB02KT CAVOK 13/09 Q1020
  • 290400Z AUTO 26003KT 210V290 CAVOK 12/09 Q1019
  • 290330Z AUTO VRB02KT CAVOK 12/09 Q1020
  • 290300Z AUTO 29005KT CAVOK 12/09 Q1020
  • 290230Z AUTO 28004KT 260V320 CAVOK 11/09 Q1020
  • 290200Z AUTO 29004KT CAVOK 13/09 Q1020

TAF TAF LELO
Valid from the 29 at 03:00 until the 30 at 03:00 UTC


290200Z 2903/3003 29008KT CAVOK TX27/2914Z TN11/2905Z
BECMG 2911/2913 33010KT
BECMG 2919/2921 VRB05KT



MET'MAP, your aeronautical weather chart ! - Copyright ORBIFLY December 2007 - Disclaimer

ORBIFLY MET'MAP TEAM :

Programming & Development : Alexandra Zaïnal
Original concept : Baudouin d'Aumeries
Technical & hardware support : Manuel Goepfert
Assistance : Marc-Olivier Méhu




SOURCES & CREDITS :

   NOAA